Time;durP1;ratioP1;P1;durP2;ratioP2;P2;SDS_P1;SDS_P2;PMS_P1;PMS_P2;Temp;Humidity;BMP_temperature;BMP_pressure;BME280_temperature;BME280_humidity;BME280_pressure;Samples;Min_cycle;Max_cycle;Signal;HPM_P1;HPM_P2
2022/08/01 00:01:55;;;;;;;2.53;1.35;;;;;;;;;;5024246;28;20021;-65
2022/08/01 00:04:20;;;;;;;5.35;1.48;;;;;;;;;;5027713;28;20041;-66
2022/08/01 00:06:45;;;;;;;2.88;1.50;;;;;;;;;;5025776;28;20063;-65
2022/08/01 00:09:11;;;;;;;2.92;1.50;;;;;;;;;;5025053;28;20465;-66
2022/08/01 00:11:36;;;;;;;1.83;1.38;;;;;;;;;;5030923;28;20026;-65
2022/08/01 00:14:02;;;;;;;5.85;1.67;;;;;;;;;;5028827;28;20056;-66
2022/08/01 00:16:27;;;;;;;2.15;1.30;;;;;;;;;;5032547;28;20021;-66
2022/08/01 00:18:53;;;;;;;4.63;1.52;;;;;;;;;;5029804;28;20055;-66
2022/08/01 00:21:19;;;;;;;3.30;1.27;;;;;;;;;;5026866;28;20124;-66
2022/08/01 00:23:47;;;;;;;3.70;1.65;;;;;;;;;;5031818;28;20053;-66
2022/08/01 00:26:13;;;;;;;3.40;1.50;;;;;;;;;;5025290;28;20111;-66
2022/08/01 00:28:38;;;;;;;1.90;1.48;;;;;;;;;;5028188;28;20064;-65
2022/08/01 00:31:03;;;;;;;2.67;1.50;;;;;;;;;;5029617;28;20096;-65
2022/08/01 00:33:29;;;;;;;2.13;1.50;;;;;;;;;;5029874;28;20033;-66
2022/08/01 00:35:54;;;;;;;3.33;1.67;;;;;;;;;;5029604;28;20034;-66
2022/08/01 00:38:20;;;;;;;8.90;1.70;;;;;;;;;;5031076;28;20263;-65
2022/08/01 00:40:46;;;;;;;4.00;1.63;;;;;;;;;;5029570;28;20027;-66
2022/08/01 00:43:11;;;;;;;4.00;1.50;;;;;;;;;;5029142;28;20052;-65
2022/08/01 00:45:36;;;;;;;1.83;1.50;;;;;;;;;;5029015;28;20128;-66
2022/08/01 00:48:02;;;;;;;3.85;1.80;;;;;;;;;;5029657;28;20502;-66
2022/08/01 00:50:27;;;;;;;2.38;1.70;;;;;;;;;;5028459;28;20088;-66
2022/08/01 00:52:53;;;;;;;3.55;1.80;;;;;;;;;;5027152;28;20137;-66
2022/08/01 00:55:20;;;;;;;3.63;1.77;;;;;;;;;;5030615;28;20044;-66
2022/08/01 00:57:46;;;;;;;5.80;2.00;;;;;;;;;;5024828;28;20029;-66
2022/08/01 01:00:12;;;;;;;4.90;1.88;;;;;;;;;;5026781;28;20034;-66
2022/08/01 01:02:38;;;;;;;3.50;1.95;;;;;;;;;;5028735;28;20537;-66
2022/08/01 01:05:03;;;;;;;4.20;1.70;;;;;;;;;;5028085;28;20029;-65
2022/08/01 01:07:53;;;;;;;5.03;1.80;;;;;;;;;;5028252;28;20036;-65
2022/08/01 01:10:25;;;;;;;4.45;1.90;;;;;;;;;;5035348;28;20573;-65
2022/08/01 01:12:59;;;;;;;4.32;1.90;;;;;;;;;;5020766;28;20034;-66
2022/08/01 01:15:36;;;;;;;4.05;1.90;;;;;;;;;;5025094;28;20037;-65
2022/08/01 01:18:07;;;;;;;4.32;1.90;;;;;;;;;;5031546;28;20552;-66
2022/08/01 01:20:51;;;;;;;4.22;2.13;;;;;;;;;;5028491;28;20037;-66
2022/08/01 01:23:32;;;;;;;4.80;2.10;;;;;;;;;;5030043;28;20514;-65
2022/08/01 01:26:28;;;;;;;4.88;2.70;;;;;;;;;;5022447;28;20046;-65
2022/08/01 01:29:09;;;;;;;4.93;2.53;;;;;;;;;;5022378;28;20033;-65
2022/08/01 01:31:45;;;;;;;6.35;2.38;;;;;;;;;;5026775;28;20502;-65
2022/08/01 01:34:13;;;;;;;5.22;2.45;;;;;;;;;;5022551;28;20041;-65
2022/08/01 01:36:40;;;;;;;6.32;2.65;;;;;;;;;;5026272;28;20506;-65
2022/08/01 01:39:06;;;;;;;10.32;2.75;;;;;;;;;;5027326;28;20120;-65
2022/08/01 01:41:33;;;;;;;5.70;2.67;;;;;;;;;;5029463;28;20030;-66
2022/08/01 01:44:01;;;;;;;5.50;2.90;;;;;;;;;;5029058;28;20034;-66
2022/08/01 01:46:28;;;;;;;6.88;2.70;;;;;;;;;;5025150;28;20028;-66
2022/08/01 01:48:55;;;;;;;5.97;3.08;;;;;;;;;;5030337;28;20107;-65
2022/08/01 01:51:23;;;;;;;6.18;2.70;;;;;;;;;;5030239;28;20503;-66
2022/08/01 01:53:50;;;;;;;8.63;3.38;;;;;;;;;;5029199;28;20040;-66
2022/08/01 01:56:18;;;;;;;7.60;3.45;;;;;;;;;;5025673;28;20033;-65
2022/08/01 01:58:45;;;;;;;8.60;3.53;;;;;;;;;;5034076;28;20074;-66
2022/08/01 02:01:12;;;;;;;6.32;3.75;;;;;;;;;;5028466;28;20048;-65
2022/08/01 02:03:39;;;;;;;7.63;3.20;;;;;;;;;;5028341;28;20026;-66
2022/08/01 02:06:06;;;;;;;8.15;3.80;;;;;;;;;;5032402;28;20037;-66
2022/08/01 02:08:33;;;;;;;14.18;3.90;;;;;;;;;;5035878;28;20032;-66
2022/08/01 02:11:19;;;;;;;8.80;3.63;;;;;;;;;;5029059;28;20117;-65
2022/08/01 02:13:52;;;;;;;7.03;3.55;;;;;;;;;;5025752;28;20026;-65
2022/08/01 02:16:20;;;;;;;8.70;4.32;;;;;;;;;;5029390;28;20131;-66
2022/08/01 02:18:45;;;;;;;7.70;3.80;;;;;;;;;;5027628;28;20039;-65
2022/08/01 02:21:16;;;;;;;6.43;3.50;;;;;;;;;;5025853;28;20046;-66
2022/08/01 02:23:43;;;;;;;7.93;3.92;;;;;;;;;;5027065;28;20044;-65
2022/08/01 02:26:13;;;;;;;12.57;4.20;;;;;;;;;;5022594;28;20037;-65
2022/08/01 02:28:55;;;;;;;9.00;4.00;;;;;;;;;;5027424;28;20096;-65
2022/08/01 02:31:22;;;;;;;9.40;3.83;;;;;;;;;;5028439;28;20026;-66
2022/08/01 02:33:58;;;;;;;8.30;3.88;;;;;;;;;;5026687;28;20068;-65
2022/08/01 02:36:27;;;;;;;8.68;3.85;;;;;;;;;;5031205;28;20597;-65
2022/08/01 02:38:55;;;;;;;10.45;4.32;;;;;;;;;;5026765;28;20029;-66
2022/08/01 02:41:21;;;;;;;8.57;4.28;;;;;;;;;;5028261;28;20030;-65
2022/08/01 02:43:51;;;;;;;16.20;5.18;;;;;;;;;;5025675;28;20032;-65
2022/08/01 02:46:22;;;;;;;11.48;4.32;;;;;;;;;;5032950;28;20029;-66
2022/08/01 02:48:52;;;;;;;12.55;4.43;;;;;;;;;;5026826;28;20038;-65
2022/08/01 02:51:21;;;;;;;13.63;4.30;;;;;;;;;;5023374;28;20053;-66
2022/08/01 02:53:48;;;;;;;12.25;4.25;;;;;;;;;;5030927;28;20541;-66
2022/08/01 02:56:14;;;;;;;13.27;4.10;;;;;;;;;;5028196;28;20039;-66
2022/08/01 02:58:40;;;;;;;9.40;3.80;;;;;;;;;;5030089;28;20056;-65
2022/08/01 03:01:07;;;;;;;9.82;3.85;;;;;;;;;;5027699;28;20087;-66
2022/08/01 03:03:33;;;;;;;9.32;3.78;;;;;;;;;;5028161;28;20215;-65
2022/08/01 03:05:59;;;;;;;9.82;4.10;;;;;;;;;;5020283;28;20041;-66
2022/08/01 03:08:26;;;;;;;15.70;5.80;;;;;;;;;;5025399;28;20053;-66
2022/08/01 03:10:53;;;;;;;16.45;5.97;;;;;;;;;;5029561;28;20029;-66
2022/08/01 03:13:21;;;;;;;19.38;7.30;;;;;;;;;;5021723;28;20031;-66
2022/08/01 03:15:48;;;;;;;22.13;6.35;;;;;;;;;;5027340;28;20045;-66
2022/08/01 03:18:15;;;;;;;15.90;6.40;;;;;;;;;;5023331;28;20042;-66
2022/08/01 03:20:42;;;;;;;17.00;6.20;;;;;;;;;;5027038;28;20702;-66
2022/08/01 03:23:11;;;;;;;12.70;5.32;;;;;;;;;;5033340;28;20036;-65
2022/08/01 03:25:39;;;;;;;14.57;5.95;;;;;;;;;;5029315;28;20049;-66
2022/08/01 03:28:06;;;;;;;16.70;6.55;;;;;;;;;;5024406;28;20034;-66
2022/08/01 03:30:33;;;;;;;17.30;7.07;;;;;;;;;;5027144;28;20048;-66
2022/08/01 03:32:59;;;;;;;23.88;7.03;;;;;;;;;;5023450;28;20029;-66
2022/08/01 03:35:32;;;;;;;20.67;7.10;;;;;;;;;;5026858;28;20033;-65
2022/08/01 03:38:01;;;;;;;18.23;6.72;;;;;;;;;;5026917;28;20045;-66
2022/08/01 03:41:04;;;;;;;18.33;5.80;;;;;;;;;;5026886;28;20018;-66
2022/08/01 03:43:43;;;;;;;11.90;4.85;;;;;;;;;;5028274;28;20057;-65
2022/08/01 03:46:17;;;;;;;12.55;4.57;;;;;;;;;;5027400;28;20407;-66
2022/08/01 03:48:48;;;;;;;14.10;4.90;;;;;;;;;;5026731;28;20061;-66
2022/08/01 03:51:14;;;;;;;9.18;4.55;;;;;;;;;;5025656;28;20121;-65
2022/08/01 03:53:42;;;;;;;10.70;4.50;;;;;;;;;;5028068;28;20076;-66
2022/08/01 03:56:10;;;;;;;20.05;5.22;;;;;;;;;;5028174;28;20465;-66
2022/08/01 03:58:38;;;;;;;14.82;5.78;;;;;;;;;;5025119;28;20033;-66
2022/08/01 04:01:06;;;;;;;12.60;4.85;;;;;;;;;;5030227;28;20036;-65
2022/08/01 04:03:32;;;;;;;12.85;5.53;;;;;;;;;;5029216;28;20029;-66
2022/08/01 04:05:58;;;;;;;20.20;5.80;;;;;;;;;;5022809;28;20029;-65
2022/08/01 04:08:34;;;;;;;13.38;4.97;;;;;;;;;;5027835;28;20117;-65
2022/08/01 04:10:59;;;;;;;17.02;4.57;;;;;;;;;;5030122;28;20033;-66
2022/08/01 04:13:24;;;;;;;13.07;4.78;;;;;;;;;;5023922;28;20010;-66
2022/08/01 04:15:50;;;;;;;12.55;5.25;;;;;;;;;;5029424;28;20543;-66
2022/08/01 04:18:15;;;;;;;15.23;5.18;;;;;;;;;;5033098;28;20040;-66
2022/08/01 04:20:41;;;;;;;11.63;4.38;;;;;;;;;;5022645;28;20107;-66
2022/08/01 04:23:07;;;;;;;10.38;4.38;;;;;;;;;;5034610;28;20298;-66
2022/08/01 04:25:34;;;;;;;11.60;4.80;;;;;;;;;;5033267;28;20044;-66
2022/08/01 04:28:03;;;;;;;11.27;5.22;;;;;;;;;;5028016;28;20406;-66
2022/08/01 04:30:32;;;;;;;16.17;6.07;;;;;;;;;;5023826;28;20029;-65
2022/08/01 04:33:01;;;;;;;13.48;5.70;;;;;;;;;;5025766;28;20040;-66
2022/08/01 04:35:27;;;;;;;17.30;5.80;;;;;;;;;;5025438;28;20164;-66
2022/08/01 04:37:53;;;;;;;14.15;5.95;;;;;;;;;;5025009;28;20032;-66
2022/08/01 04:40:21;;;;;;;19.42;6.30;;;;;;;;;;5032174;28;20598;-66
2022/08/01 04:42:48;;;;;;;18.73;6.50;;;;;;;;;;5030599;28;20033;-66
2022/08/01 04:45:14;;;;;;;17.38;6.07;;;;;;;;;;5033054;28;20517;-66
2022/08/01 04:47:41;;;;;;;15.73;6.63;;;;;;;;;;5028805;28;20029;-66
2022/08/01 04:50:07;;;;;;;19.23;7.25;;;;;;;;;;5020619;28;20087;-66
2022/08/01 04:52:34;;;;;;;17.63;6.68;;;;;;;;;;5028715;28;20520;-66
2022/08/01 04:54:59;;;;;;;19.75;7.32;;;;;;;;;;5025964;28;20042;-66
2022/08/01 04:57:25;;;;;;;17.17;7.65;;;;;;;;;;5028314;28;20049;-66
2022/08/01 04:59:56;;;;;;;20.10;7.15;;;;;;;;;;5032696;28;20080;-66
2022/08/01 05:02:22;;;;;;;26.38;7.68;;;;;;;;;;5032390;28;20041;-66
2022/08/01 05:04:47;;;;;;;20.98;7.90;;;;;;;;;;5030611;28;20398;-66
2022/08/01 05:07:15;;;;;;;24.63;7.93;;;;;;;;;;5027723;28;20029;-66
2022/08/01 05:09:41;;;;;;;22.02;8.00;;;;;;;;;;5031987;28;20422;-66
2022/08/01 05:12:08;;;;;;;29.20;9.18;;;;;;;;;;5026482;28;20037;-66
2022/08/01 05:14:33;;;;;;;24.17;7.85;;;;;;;;;;5028045;28;20034;-65
2022/08/01 05:17:02;;;;;;;19.50;8.15;;;;;;;;;;5038180;28;20036;-66
2022/08/01 05:19:29;;;;;;;22.15;8.05;;;;;;;;;;5030222;28;20026;-66
2022/08/01 05:21:55;;;;;;;26.30;9.02;;;;;;;;;;5031757;28;20480;-66
2022/08/01 05:24:20;;;;;;;23.45;8.30;;;;;;;;;;5028343;28;20037;-66
2022/08/01 05:26:45;;;;;;;27.17;9.48;;;;;;;;;;5034074;28;20388;-66
2022/08/01 05:29:11;;;;;;;21.85;8.10;;;;;;;;;;5023684;28;20516;-66
2022/08/01 05:31:36;;;;;;;23.77;7.90;;;;;;;;;;5030427;28;20509;-66
2022/08/01 05:34:02;;;;;;;20.63;8.45;;;;;;;;;;5031042;28;20530;-66
2022/08/01 05:36:27;;;;;;;20.13;8.23;;;;;;;;;;5026460;28;20033;-66
2022/08/01 05:38:53;;;;;;;19.88;7.75;;;;;;;;;;5029268;28;20037;-66
2022/08/01 05:41:18;;;;;;;20.80;8.45;;;;;;;;;;5034536;28;20051;-66
2022/08/01 05:43:44;;;;;;;20.23;8.32;;;;;;;;;;5027993;28;20021;-66
2022/08/01 05:46:09;;;;;;;17.98;8.45;;;;;;;;;;5029322;28;20028;-66
2022/08/01 05:48:34;;;;;;;20.67;7.68;;;;;;;;;;5027801;28;20045;-67
2022/08/01 05:51:00;;;;;;;22.75;8.32;;;;;;;;;;5025858;28;20533;-66
2022/08/01 05:53:26;;;;;;;18.30;7.55;;;;;;;;;;5028885;28;20052;-66
2022/08/01 05:55:51;;;;;;;19.25;8.15;;;;;;;;;;5030910;28;20063;-66
2022/08/01 05:58:16;;;;;;;16.08;8.13;;;;;;;;;;5024497;28;20115;-66
2022/08/01 06:00:42;;;;;;;17.65;7.65;;;;;;;;;;5028225;28;20030;-66
2022/08/01 06:03:07;;;;;;;17.35;7.97;;;;;;;;;;5029716;28;20092;-66
2022/08/01 06:05:32;;;;;;;17.27;7.43;;;;;;;;;;5028072;28;20030;-66
2022/08/01 06:07:57;;;;;;;13.85;6.13;;;;;;;;;;5026797;28;20140;-66
2022/08/01 06:10:23;;;;;;;12.82;6.20;;;;;;;;;;5032135;28;20394;-66
2022/08/01 06:12:48;;;;;;;19.63;5.78;;;;;;;;;;5027402;28;20388;-65
2022/08/01 06:15:14;;;;;;;19.40;6.65;;;;;;;;;;5027967;28;20426;-66
2022/08/01 06:17:41;;;;;;;16.10;6.30;;;;;;;;;;5030261;28;21260;-66
2022/08/01 06:20:07;;;;;;;16.48;6.25;;;;;;;;;;5023756;28;20106;-66
2022/08/01 06:22:32;;;;;;;16.15;6.18;;;;;;;;;;5031342;28;20029;-66
2022/08/01 06:24:58;;;;;;;13.50;5.53;;;;;;;;;;5032722;28;20037;-66
2022/08/01 06:27:24;;;;;;;19.58;5.82;;;;;;;;;;5027436;28;20033;-66
2022/08/01 06:29:53;;;;;;;13.57;5.50;;;;;;;;;;5021378;28;20041;-66
2022/08/01 06:32:18;;;;;;;15.90;6.00;;;;;;;;;;5026472;28;20068;-66
2022/08/01 06:34:43;;;;;;;15.20;5.75;;;;;;;;;;5026234;28;20471;-66
2022/08/01 06:37:09;;;;;;;14.68;5.63;;;;;;;;;;5028650;28;20033;-66
2022/08/01 06:39:34;;;;;;;16.58;5.72;;;;;;;;;;5033183;28;20088;-66
2022/08/01 06:41:59;;;;;;;12.30;5.13;;;;;;;;;;5037152;28;20043;-66
2022/08/01 06:44:25;;;;;;;11.30;4.97;;;;;;;;;;5031411;28;20040;-66
2022/08/01 06:46:50;;;;;;;15.70;6.88;;;;;;;;;;5030917;28;20028;-66
2022/08/01 06:49:15;;;;;;;13.43;6.13;;;;;;;;;;5025486;28;20410;-66
2022/08/01 06:51:41;;;;;;;12.32;5.78;;;;;;;;;;5029087;28;20074;-66
2022/08/01 06:54:06;;;;;;;10.35;5.75;;;;;;;;;;5036770;28;20132;-66
2022/08/01 06:56:32;;;;;;;14.60;5.75;;;;;;;;;;5029707;28;20120;-66
2022/08/01 06:59:00;;;;;;;13.18;5.60;;;;;;;;;;5026538;28;20048;-66
2022/08/01 07:01:29;;;;;;;16.55;6.25;;;;;;;;;;5026238;28;20097;-66
2022/08/01 07:03:54;;;;;;;12.52;6.05;;;;;;;;;;5026280;28;20034;-66
2022/08/01 07:06:21;;;;;;;18.17;6.78;;;;;;;;;;5027348;28;20041;-66
2022/08/01 07:08:47;;;;;;;15.00;6.40;;;;;;;;;;5025004;28;20048;-66
2022/08/01 07:11:12;;;;;;;15.98;7.22;;;;;;;;;;5031084;28;20403;-66
2022/08/01 07:13:37;;;;;;;17.27;7.05;;;;;;;;;;5031134;28;20030;-66
2022/08/01 07:16:03;;;;;;;15.50;7.60;;;;;;;;;;5026646;28;20060;-66
2022/08/01 07:18:28;;;;;;;21.45;8.00;;;;;;;;;;5027235;28;20041;-66
2022/08/01 07:20:54;;;;;;;17.17;7.32;;;;;;;;;;5022127;28;20120;-66
2022/08/01 07:23:19;;;;;;;17.00;7.95;;;;;;;;;;5020145;28;20041;-66
2022/08/01 07:25:44;;;;;;;16.08;6.88;;;;;;;;;;5021965;28;20547;-66
2022/08/01 07:28:10;;;;;;;18.70;7.70;;;;;;;;;;5020289;28;20414;-66
2022/08/01 07:30:35;;;;;;;15.63;7.32;;;;;;;;;;5018719;28;20052;-66
2022/08/01 07:33:01;;;;;;;14.60;6.00;;;;;;;;;;5018326;28;20128;-66
2022/08/01 07:35:27;;;;;;;19.10;6.57;;;;;;;;;;5024944;28;20137;-66
2022/08/01 07:37:53;;;;;;;15.07;6.57;;;;;;;;;;5026381;28;20193;-66
2022/08/01 07:40:19;;;;;;;14.43;6.43;;;;;;;;;;5023901;28;20120;-66
2022/08/01 07:42:45;;;;;;;15.95;6.57;;;;;;;;;;5021619;28;20041;-66
2022/08/01 07:45:12;;;;;;;20.75;7.63;;;;;;;;;;5015703;28;20069;-67
2022/08/01 07:47:37;;;;;;;13.68;7.68;;;;;;;;;;5022560;28;20041;-66
2022/08/01 07:50:05;;;;;;;17.20;7.72;;;;;;;;;;5025638;28;20041;-66
2022/08/01 07:52:30;;;;;;;22.90;6.97;;;;;;;;;;5022447;28;20029;-66
2022/08/01 07:54:57;;;;;;;16.50;8.02;;;;;;;;;;5023289;28;20103;-66
2022/08/01 07:57:23;;;;;;;19.02;8.48;;;;;;;;;;5024133;28;20051;-66
2022/08/01 07:59:49;;;;;;;16.50;7.60;;;;;;;;;;5020438;28;20054;-66
2022/08/01 08:02:14;;;;;;;20.73;9.10;;;;;;;;;;5023277;28;20049;-66
2022/08/01 08:04:40;;;;;;;16.45;7.55;;;;;;;;;;5024011;28;20452;-66
2022/08/01 08:07:06;;;;;;;17.15;8.13;;;;;;;;;;5021336;28;20064;-66
2022/08/01 08:09:31;;;;;;;17.27;7.85;;;;;;;;;;5021166;28;20041;-66
2022/08/01 08:11:56;;;;;;;15.57;7.47;;;;;;;;;;5023653;28;20048;-66
2022/08/01 08:14:22;;;;;;;20.25;8.48;;;;;;;;;;5022540;28;20091;-66
2022/08/01 08:16:47;;;;;;;17.85;8.00;;;;;;;;;;5024933;28;20037;-67
2022/08/01 08:19:13;;;;;;;16.85;8.32;;;;;;;;;;5027236;28;20710;-67
2022/08/01 08:21:38;;;;;;;14.27;8.02;;;;;;;;;;5009965;28;20463;-66
2022/08/01 08:24:19;;;;;;;14.00;7.00;;;;;;;;;;5023023;28;20048;-66
2022/08/01 08:26:46;;;;;;;15.07;7.18;;;;;;;;;;5020567;28;20744;-66
2022/08/01 08:29:11;;;;;;;14.40;7.10;;;;;;;;;;5017481;28;20037;-66
2022/08/01 08:31:37;;;;;;;12.35;6.95;;;;;;;;;;5029388;28;20025;-66
2022/08/01 08:34:02;;;;;;;13.10;5.95;;;;;;;;;;5023096;28;20049;-66
2022/08/01 08:36:28;;;;;;;13.02;7.07;;;;;;;;;;5010647;28;20038;-66
2022/08/01 08:38:54;;;;;;;13.80;6.43;;;;;;;;;;5016977;28;20045;-67
2022/08/01 08:41:19;;;;;;;14.63;6.38;;;;;;;;;;5013868;28;20529;-66
2022/08/01 08:43:45;;;;;;;11.20;6.70;;;;;;;;;;5023992;28;20100;-66
2022/08/01 08:46:11;;;;;;;10.85;6.28;;;;;;;;;;5039206;28;20086;-67
2022/08/01 08:48:39;;;;;;;13.57;6.85;;;;;;;;;;5029709;28;20034;-67
2022/08/01 08:51:05;;;;;;;10.45;5.85;;;;;;;;;;5027656;28;20038;-66
2022/08/01 08:53:33;;;;;;;10.45;6.22;;;;;;;;;;5021727;28;20052;-66
2022/08/01 08:55:58;;;;;;;8.65;6.22;;;;;;;;;;5019579;28;20045;-67
2022/08/01 08:58:26;;;;;;;15.57;6.85;;;;;;;;;;5028633;28;20079;-66
2022/08/01 09:00:53;;;;;;;14.98;6.47;;;;;;;;;;5028099;28;20041;-67
2022/08/01 09:03:18;;;;;;;10.90;6.60;;;;;;;;;;5030499;28;20445;-66
2022/08/01 09:05:44;;;;;;;13.88;6.63;;;;;;;;;;5034816;28;20044;-66
2022/08/01 09:08:09;;;;;;;13.70;7.32;;;;;;;;;;5026458;28;20048;-66
2022/08/01 09:10:35;;;;;;;11.88;7.30;;;;;;;;;;5029068;28;20030;-66
2022/08/01 09:13:12;;;;;;;11.07;6.13;;;;;;;;;;5033072;28;20111;-66
2022/08/01 09:15:58;;;;;;;11.07;6.90;;;;;;;;;;5026474;28;20049;-66
2022/08/01 09:18:28;;;;;;;13.65;7.20;;;;;;;;;;5026887;28;20045;-67
2022/08/01 09:21:05;;;;;;;11.75;6.40;;;;;;;;;;5018846;28;20034;-66
2022/08/01 09:23:39;;;;;;;13.13;7.07;;;;;;;;;;5010671;28;20419;-67
2022/08/01 09:26:09;;;;;;;9.50;6.85;;;;;;;;;;5019259;28;20048;-66
2022/08/01 09:28:35;;;;;;;11.65;7.03;;;;;;;;;;5034941;28;20394;-66
2022/08/01 09:31:09;;;;;;;11.23;6.97;;;;;;;;;;5032216;28;20582;-66
2022/08/01 09:33:49;;;;;;;11.32;6.65;;;;;;;;;;5029241;28;20129;-66
2022/08/01 09:36:14;;;;;;;9.30;6.50;;;;;;;;;;5026092;28;20059;-66
2022/08/01 09:38:39;;;;;;;11.70;6.97;;;;;;;;;;5031760;28;20037;-66
2022/08/01 09:41:07;;;;;;;13.40;7.53;;;;;;;;;;5019134;28;20030;-66
2022/08/01 09:43:32;;;;;;;10.32;6.60;;;;;;;;;;5028723;28;20030;-66
2022/08/01 09:45:59;;;;;;;9.75;6.38;;;;;;;;;;5027362;28;20033;-66
2022/08/01 09:48:26;;;;;;;8.82;5.85;;;;;;;;;;5028687;28;20049;-66
2022/08/01 09:50:52;;;;;;;14.98;6.47;;;;;;;;;;5030091;28;20045;-66
2022/08/01 09:53:18;;;;;;;9.63;6.35;;;;;;;;;;5029680;28;20057;-66
2022/08/01 09:55:44;;;;;;;10.52;6.10;;;;;;;;;;5028670;28;20033;-66
2022/08/01 09:58:11;;;;;;;5.78;4.30;;;;;;;;;;5028755;28;20025;-66
2022/08/01 10:00:38;;;;;;;6.50;4.45;;;;;;;;;;5026280;28;20033;-65
2022/08/01 10:03:23;;;;;;;9.10;5.03;;;;;;;;;;5024963;28;20187;-66
2022/08/01 10:05:49;;;;;;;10.20;5.88;;;;;;;;;;5027217;28;20132;-66
2022/08/01 10:08:16;;;;;;;10.65;5.40;;;;;;;;;;5022987;28;20625;-66
2022/08/01 10:10:42;;;;;;;7.65;4.88;;;;;;;;;;5029215;28;20044;-66
2022/08/01 10:13:08;;;;;;;6.63;4.60;;;;;;;;;;5027542;28;20044;-66
2022/08/01 10:15:34;;;;;;;7.90;5.25;;;;;;;;;;5027822;28;20107;-66
2022/08/01 10:18:03;;;;;;;9.00;5.90;;;;;;;;;;5027463;28;21197;-66
2022/08/01 10:20:31;;;;;;;6.90;5.15;;;;;;;;;;5025420;28;20041;-66
2022/08/01 10:23:02;;;;;;;8.77;6.15;;;;;;;;;;5014590;28;20033;-66
2022/08/01 10:25:31;;;;;;;9.93;6.30;;;;;;;;;;5028568;28;20254;-66
2022/08/01 10:28:00;;;;;;;8.93;5.75;;;;;;;;;;5016989;28;20083;-66
2022/08/01 10:30:26;;;;;;;7.90;5.82;;;;;;;;;;5019701;28;20530;-66
2022/08/01 10:32:54;;;;;;;8.13;5.85;;;;;;;;;;5027404;28;20040;-66
2022/08/01 10:35:20;;;;;;;9.25;6.07;;;;;;;;;;5026813;28;20060;-66
2022/08/01 10:37:46;;;;;;;9.00;6.00;;;;;;;;;;5036371;28;20033;-66
2022/08/01 10:40:15;;;;;;;11.35;5.97;;;;;;;;;;5049407;28;20033;-66
2022/08/01 10:42:45;;;;;;;12.52;6.00;;;;;;;;;;5031808;28;20050;-66
2022/08/01 10:45:15;;;;;;;7.55;5.78;;;;;;;;;;5029957;28;20072;-66
2022/08/01 10:47:46;;;;;;;10.52;6.45;;;;;;;;;;5027164;28;20080;-66
2022/08/01 10:50:24;;;;;;;9.50;6.20;;;;;;;;;;5029626;28;20072;-66
2022/08/01 10:53:19;;;;;;;8.00;6.00;;;;;;;;;;5022608;28;20029;-66
2022/08/01 10:55:50;;;;;;;11.35;5.72;;;;;;;;;;5029053;28;20422;-66
2022/08/01 10:58:31;;;;;;;9.13;6.03;;;;;;;;;;5027240;28;20036;-66
2022/08/01 11:01:15;;;;;;;12.73;6.30;;;;;;;;;;5022902;28;20042;-66
2022/08/01 11:03:55;;;;;;;9.63;6.50;;;;;;;;;;5024541;28;20052;-66
2022/08/01 11:06:28;;;;;;;11.00;6.97;;;;;;;;;;5022918;28;20064;-66
2022/08/01 11:08:55;;;;;;;10.13;6.13;;;;;;;;;;5025751;28;20045;-66
2022/08/01 11:11:21;;;;;;;8.40;6.32;;;;;;;;;;5024715;28;20033;-66
2022/08/01 11:14:11;;;;;;;8.75;6.30;;;;;;;;;;5022639;28;20516;-66
2022/08/01 11:16:37;;;;;;;8.13;6.40;;;;;;;;;;5021664;28;20064;-66
2022/08/01 11:19:04;;;;;;;9.23;6.70;;;;;;;;;;5028987;28;20049;-65
2022/08/01 11:21:52;;;;;;;8.52;6.00;;;;;;;;;;5020869;28;20044;-66
2022/08/01 11:24:48;;;;;;;7.63;5.90;;;;;;;;;;5023499;28;20041;-66
2022/08/01 11:27:27;;;;;;;8.75;6.90;;;;;;;;;;5028314;28;20029;-66
2022/08/01 11:30:08;;;;;;;8.98;5.47;;;;;;;;;;5028266;28;20047;-66
2022/08/01 11:32:55;;;;;;;6.82;5.50;;;;;;;;;;5028002;28;20159;-66
2022/08/01 11:35:20;;;;;;;8.07;5.47;;;;;;;;;;5025185;28;20400;-66
2022/08/01 11:37:51;;;;;;;7.38;5.65;;;;;;;;;;5027605;28;20032;-66
2022/08/01 11:40:21;;;;;;;7.13;6.05;;;;;;;;;;5028629;28;20032;-66
2022/08/01 11:42:47;;;;;;;7.25;5.47;;;;;;;;;;5022135;28;20037;-66
2022/08/01 11:45:12;;;;;;;8.90;6.00;;;;;;;;;;5028011;28;20710;-66
2022/08/01 11:47:49;;;;;;;7.07;5.53;;;;;;;;;;5025025;28;20076;-66
2022/08/01 11:50:41;;;;;;;7.38;5.40;;;;;;;;;;5017091;28;20037;-66
2022/08/01 11:53:08;;;;;;;9.15;5.50;;;;;;;;;;5022934;28;20158;-66
2022/08/01 11:55:34;;;;;;;8.07;5.10;;;;;;;;;;5026313;28;20033;-66
2022/08/01 11:58:07;;;;;;;6.45;5.15;;;;;;;;;;5013496;28;20927;-66
2022/08/01 12:00:33;;;;;;;7.53;5.88;;;;;;;;;;5026962;28;20033;-66
2022/08/01 12:03:05;;;;;;;7.70;4.90;;;;;;;;;;5024232;28;20133;-66
2022/08/01 12:05:33;;;;;;;9.45;5.65;;;;;;;;;;5020695;28;20613;-66
2022/08/01 12:08:00;;;;;;;6.60;5.43;;;;;;;;;;5026665;28;20186;-66
2022/08/01 12:10:27;;;;;;;11.98;6.03;;;;;;;;;;5022618;28;20044;-66
2022/08/01 12:12:57;;;;;;;7.55;5.43;;;;;;;;;;5021811;28;20086;-66
2022/08/01 12:15:24;;;;;;;6.55;5.30;;;;;;;;;;5022723;28;20518;-66
2022/08/01 12:17:55;;;;;;;6.72;5.28;;;;;;;;;;5011977;28;20045;-66
2022/08/01 12:20:22;;;;;;;7.70;5.53;;;;;;;;;;5015930;28;20033;-66
2022/08/01 12:22:53;;;;;;;7.63;5.82;;;;;;;;;;5023987;28;20029;-66
2022/08/01 12:25:18;;;;;;;6.43;5.47;;;;;;;;;;5025220;28;20113;-66
2022/08/01 12:27:45;;;;;;;5.97;4.70;;;;;;;;;;5025447;28;20140;-66
2022/08/01 12:30:15;;;;;;;5.68;4.80;;;;;;;;;;5024724;28;20047;-66
2022/08/01 12:32:44;;;;;;;6.03;4.85;;;;;;;;;;5022258;28;21190;-66
2022/08/01 12:35:13;;;;;;;6.60;5.22;;;;;;;;;;5027817;28;20092;-66
2022/08/01 12:37:43;;;;;;;6.95;5.10;;;;;;;;;;5025097;28;20236;-66
2022/08/01 12:40:12;;;;;;;7.15;5.15;;;;;;;;;;5025375;28;20030;-66
2022/08/01 12:42:39;;;;;;;6.10;4.70;;;;;;;;;;5024694;28;20083;-66
2022/08/01 12:45:07;;;;;;;6.25;4.88;;;;;;;;;;5023373;28;20769;-66
2022/08/01 12:47:32;;;;;;;5.78;4.60;;;;;;;;;;5026438;28;20523;-66
2022/08/01 12:49:58;;;;;;;6.47;5.10;;;;;;;;;;5025661;28;20038;-66
2022/08/01 12:52:24;;;;;;;6.80;5.40;;;;;;;;;;5023903;28;20040;-66
2022/08/01 12:55:10;;;;;;;6.75;4.85;;;;;;;;;;5030628;28;20061;-66
2022/08/01 12:57:49;;;;;;;7.43;5.00;;;;;;;;;;5026838;28;20041;-66
2022/08/01 13:00:21;;;;;;;5.95;4.78;;;;;;;;;;5025917;28;20109;-66
2022/08/01 13:02:48;;;;;;;6.50;4.70;;;;;;;;;;5021321;28;20574;-66
2022/08/01 13:05:15;;;;;;;5.15;4.18;;;;;;;;;;5022759;28;20037;-66
2022/08/01 13:07:50;;;;;;;6.10;4.75;;;;;;;;;;5012045;28;20108;-66
2022/08/01 13:10:30;;;;;;;6.07;4.63;;;;;;;;;;5025524;28;20021;-66
2022/08/01 13:12:58;;;;;;;7.80;4.88;;;;;;;;;;5025033;28;20132;-66
2022/08/01 13:15:31;;;;;;;5.22;4.25;;;;;;;;;;5022713;28;20041;-66
2022/08/01 13:17:58;;;;;;;7.63;5.55;;;;;;;;;;5028319;28;20157;-66
2022/08/01 13:20:25;;;;;;;5.65;4.75;;;;;;;;;;5017871;28;20037;-66
2022/08/01 13:22:51;;;;;;;5.47;4.72;;;;;;;;;;5007227;28;20029;-66
2022/08/01 13:25:17;;;;;;;5.60;4.28;;;;;;;;;;5010479;28;20033;-66
2022/08/01 13:27:43;;;;;;;5.65;4.70;;;;;;;;;;5024667;28;20643;-66
2022/08/01 13:30:18;;;;;;;7.43;5.32;;;;;;;;;;5026964;28;20038;-66
2022/08/01 13:32:57;;;;;;;5.15;4.60;;;;;;;;;;5028998;28;20041;-66
2022/08/01 13:35:22;;;;;;;4.80;4.30;;;;;;;;;;5027604;28;20061;-66
2022/08/01 13:37:48;;;;;;;6.28;4.97;;;;;;;;;;5026337;28;20068;-66
2022/08/01 13:40:23;;;;;;;6.63;4.90;;;;;;;;;;5030274;28;20044;-66
2022/08/01 13:42:49;;;;;;;6.38;4.43;;;;;;;;;;5024906;28;21245;-67
2022/08/01 13:45:14;;;;;;;7.25;4.80;;;;;;;;;;5032652;28;20417;-68
2022/08/01 13:47:39;;;;;;;6.18;4.43;;;;;;;;;;5028410;28;20557;-66
2022/08/01 13:50:05;;;;;;;5.97;5.05;;;;;;;;;;5029348;28;20079;-66
2022/08/01 13:52:31;;;;;;;5.30;4.75;;;;;;;;;;5028405;28;20033;-66
2022/08/01 13:54:56;;;;;;;6.05;4.60;;;;;;;;;;5019964;28;20046;-66
2022/08/01 13:57:22;;;;;;;5.15;4.43;;;;;;;;;;5023446;28;20041;-66
2022/08/01 13:59:49;;;;;;;5.20;4.60;;;;;;;;;;5027579;28;20033;-66
2022/08/01 14:02:14;;;;;;;5.07;4.47;;;;;;;;;;5036394;28;20128;-66
2022/08/01 14:04:39;;;;;;;5.78;4.45;;;;;;;;;;5036176;28;20111;-66
2022/08/01 14:07:05;;;;;;;5.07;4.30;;;;;;;;;;5024434;28;20040;-66
2022/08/01 14:09:30;;;;;;;5.18;4.40;;;;;;;;;;5027299;28;20084;-66
2022/08/01 14:11:57;;;;;;;6.18;4.68;;;;;;;;;;5017201;28;20510;-66
2022/08/01 14:14:22;;;;;;;5.18;3.92;;;;;;;;;;5027912;28;20034;-66
2022/08/01 14:16:48;;;;;;;5.25;3.80;;;;;;;;;;5025148;28;20033;-66
2022/08/01 14:19:15;;;;;;;5.63;4.20;;;;;;;;;;5027810;28;20076;-66
2022/08/01 14:21:41;;;;;;;4.82;3.75;;;;;;;;;;5026670;28;20029;-66
2022/08/01 14:24:06;;;;;;;4.28;3.55;;;;;;;;;;5022692;28;20990;-66
2022/08/01 14:26:32;;;;;;;4.53;3.38;;;;;;;;;;5021424;28;20040;-66
2022/08/01 14:28:58;;;;;;;4.10;3.70;;;;;;;;;;5027047;28;20045;-66
2022/08/01 14:31:23;;;;;;;4.45;3.35;;;;;;;;;;5027322;28;20021;-66
2022/08/01 14:33:48;;;;;;;5.43;3.80;;;;;;;;;;5025642;28;20045;-66
2022/08/01 14:36:14;;;;;;;4.47;3.30;;;;;;;;;;5026974;28;20136;-66
2022/08/01 14:38:39;;;;;;;4.03;3.55;;;;;;;;;;5026658;28;20060;-66
2022/08/01 14:41:05;;;;;;;6.43;3.80;;;;;;;;;;5023889;28;20037;-66
2022/08/01 14:43:32;;;;;;;5.13;4.07;;;;;;;;;;5028070;28;20045;-66